Terminal Aerodrome Forecast
Issued by NWS

Current Version | Previous Version | Graphics & Text | Print | Product List | Glossary On
Versions: 1 2 3 4 5 6 7 8 9 10 11 12 13 14 15 16 17
000
FTUS41 KILN 151740
TAFLCK
TAF
KLCK 151740Z 1518/1618 18010KT P6SM BKN080 OVC150
     FM151900 20012KT P6SM -SHRA OVC080
     FM152300 22011KT P6SM VCSH OVC008
     FM160500 26013KT P6SM OVC008
     FM161400 29013KT P6SM BKN015=

USA.gov is the U.S. government's official web portal to all federal, state and local government web resources and services.